Time;durP1;ratioP1;P1;durP2;ratioP2;P2;SDS_P1;SDS_P2;PMS_P1;PMS_P2;Temp;Humidity;BMP_temperature;BMP_pressure;BME280_temperature;BME280_humidity;BME280_pressure;Samples;Min_cycle;Max_cycle;Signal;HPM_P1;HPM_P2
2022/05/20 00:00:09;;;;;;;7.70;3.53;;;17.50;99.90;;;;;;4648009;30;20502;-85
2022/05/20 00:02:38;;;;;;;3.17;2.97;;;17.40;99.90;;;;;;4634663;30;20062;-84
2022/05/20 00:05:06;;;;;;;3.05;2.85;;;17.30;99.90;;;;;;4648394;30;20047;-84
2022/05/20 00:07:35;;;;;;;4.15;2.75;;;17.30;99.90;;;;;;4648585;30;20062;-84
2022/05/20 00:10:03;;;;;;;5.35;2.33;;;17.20;99.90;;;;;;4633952;30;20058;-84
2022/05/20 00:12:30;;;;;;;4.20;3.10;;;17.10;99.90;;;;;;4662189;30;20058;-84
2022/05/20 00:14:58;;;;;;;3.17;2.88;;;17.00;99.90;;;;;;4663301;30;20675;-84
2022/05/20 00:17:26;;;;;;;3.22;2.97;;;17.00;99.90;;;;;;4663496;30;20062;-84
2022/05/20 00:19:54;;;;;;;3.35;3.08;;;17.00;99.90;;;;;;4663635;30;20062;-84
2022/05/20 00:22:22;;;;;;;3.42;2.78;;;17.00;99.90;;;;;;4663246;30;20577;-85
2022/05/20 00:27:36;;;;;;;2.35;2.13;;;16.90;99.90;;;;;;4648430;30;20063;-84
2022/05/20 00:30:04;;;;;;;3.47;2.65;;;16.80;99.90;;;;;;4647160;30;20050;-84
2022/05/20 00:32:32;;;;;;;3.30;3.00;;;16.80;99.90;;;;;;4647790;30;20054;-84
2022/05/20 00:35:00;;;;;;;3.35;2.72;;;16.80;99.90;;;;;;4648244;30;20070;-84
2022/05/20 00:37:27;;;;;;;5.05;2.78;;;16.70;99.90;;;;;;4658002;30;20058;-84
2022/05/20 00:39:56;;;;;;;4.05;3.45;;;16.70;99.90;;;;;;4647447;30;20429;-83
2022/05/20 00:42:24;;;;;;;3.92;3.10;;;16.70;99.90;;;;;;4662011;30;20058;-84
2022/05/20 00:44:52;;;;;;;2.67;2.13;;;16.70;99.90;;;;;;4632571;30;20383;-84
2022/05/20 00:47:19;;;;;;;3.50;3.20;;;16.60;99.90;;;;;;4662023;30;20067;-84
2022/05/20 00:49:53;;;;;;;11.43;5.03;;;16.60;99.90;;;;;;4662757;30;20065;-84
2022/05/20 00:52:22;;;;;;;6.22;2.90;;;16.50;99.90;;;;;;4661784;30;20054;-84
2022/05/20 00:54:55;;;;;;;3.70;3.40;;;16.50;99.90;;;;;;4663269;30;20054;-84
2022/05/20 00:57:35;;;;;;;3.67;3.05;;;16.40;99.90;;;;;;4647549;30;20055;-84
2022/05/20 01:00:08;;;;;;;3.78;3.33;;;16.40;99.90;;;;;;4662265;30;20065;-84
2022/05/20 01:02:37;;;;;;;3.13;2.78;;;16.30;99.90;;;;;;4662005;30;20078;-84
2022/05/20 01:05:26;;;;;;;5.07;3.30;;;16.30;99.90;;;;;;4661321;30;20394;-84
2022/05/20 01:07:55;;;;;;;3.15;2.47;;;16.20;99.90;;;;;;4661587;30;20517;-83
2022/05/20 01:10:23;;;;;;;3.78;3.28;;;16.20;99.90;;;;;;4662273;30;20405;-83
2022/05/20 01:12:53;;;;;;;2.88;2.60;;;16.10;99.90;;;;;;4647369;30;20075;-84
2022/05/20 01:15:21;;;;;;;3.83;3.35;;;16.10;99.90;;;;;;4647306;30;20158;-84
2022/05/20 01:17:51;;;;;;;6.00;3.50;;;16.10;99.90;;;;;;4661486;30;20054;-84
2022/05/20 01:20:35;;;;;;;3.65;2.78;;;16.10;99.90;;;;;;4661408;30;20070;-83
2022/05/20 01:23:10;;;;;;;3.85;2.72;;;16.10;99.90;;;;;;4647910;30;20070;-83
2022/05/20 01:25:42;;;;;;;4.07;3.78;;;16.10;99.90;;;;;;4661326;30;20418;-83
2022/05/20 01:28:10;;;;;;;3.33;2.45;;;16.00;99.90;;;;;;4647579;30;20398;-83
2022/05/20 01:30:42;;;;;;;3.25;2.95;;;16.00;99.90;;;;;;4647198;30;20062;-84
2022/05/20 01:33:11;;;;;;;7.18;3.17;;;15.80;99.90;;;;;;4647174;30;20137;-84
2022/05/20 01:35:42;;;;;;;7.30;4.00;;;15.80;99.90;;;;;;4663000;30;20426;-83
2022/05/20 01:38:11;;;;;;;3.17;2.95;;;15.80;99.90;;;;;;4679427;30;20152;-84
2022/05/20 01:40:52;;;;;;;5.63;3.40;;;15.80;99.90;;;;;;4662819;30;20058;-83
2022/05/20 01:43:32;;;;;;;4.07;3.67;;;15.80;99.90;;;;;;4662983;30;20461;-83
2022/05/20 01:46:10;;;;;;;2.75;2.55;;;15.70;99.90;;;;;;4646742;30;20058;-83
2022/05/20 01:49:01;;;;;;;4.40;3.72;;;15.70;99.90;;;;;;4646951;30;20517;-83
2022/05/20 01:51:37;;;;;;;3.08;2.85;;;15.70;99.90;;;;;;4647622;30;20051;-83
2022/05/20 01:54:12;;;;;;;2.95;2.67;;;15.60;99.90;;;;;;4647183;30;20047;-83
2022/05/20 01:56:49;;;;;;;2.55;2.35;;;15.60;99.90;;;;;;4636422;30;20061;-82
2022/05/20 01:59:30;;;;;;;3.35;3.10;;;15.60;99.90;;;;;;4635502;30;20058;-83
2022/05/20 02:02:08;;;;;;;7.63;2.80;;;15.50;99.90;;;;;;4665274;30;20059;-84
2022/05/20 02:04:51;;;;;;;3.65;3.20;;;15.50;99.90;;;;;;4649400;30;20062;-85
2022/05/20 02:07:26;;;;;;;5.13;2.65;;;15.50;99.90;;;;;;4667134;30;20058;-86
2022/05/20 02:10:08;;;;;;;2.90;2.05;;;15.50;99.90;;;;;;4666967;30;20081;-84
2022/05/20 02:12:45;;;;;;;6.47;3.10;;;15.40;99.90;;;;;;4682496;30;20061;-85
2022/05/20 02:15:22;;;;;;;2.58;2.38;;;15.40;99.90;;;;;;4652618;30;20061;-84
2022/05/20 02:17:58;;;;;;;2.65;2.45;;;15.40;99.90;;;;;;4681197;30;20058;-84
2022/05/20 02:20:41;;;;;;;3.17;2.15;;;15.40;99.90;;;;;;4650034;30;20073;-85
2022/05/20 02:23:14;;;;;;;2.72;2.53;;;15.40;99.90;;;;;;4650189;30;20057;-82
2022/05/20 02:25:46;;;;;;;2.88;2.45;;;15.40;99.90;;;;;;4663712;30;20543;-83
2022/05/20 02:28:29;;;;;;;2.65;2.45;;;15.40;99.90;;;;;;4645950;30;20509;-83
2022/05/20 02:30:59;;;;;;;2.67;2.30;;;15.50;99.90;;;;;;4646866;30;20063;-83
2022/05/20 02:33:29;;;;;;;2.08;1.88;;;15.40;99.90;;;;;;4648062;30;20428;-83
2022/05/20 02:36:07;;;;;;;2.67;2.47;;;15.40;99.90;;;;;;4653493;30;20412;-83
2022/05/20 02:38:37;;;;;;;2.38;2.17;;;15.50;99.90;;;;;;4693910;30;20054;-83
2022/05/20 02:41:05;;;;;;;3.00;2.80;;;15.40;99.90;;;;;;4681963;30;20098;-82
2022/05/20 02:43:59;;;;;;;4.15;2.70;;;15.40;99.90;;;;;;4667012;30;20049;-83
2022/05/20 02:47:31;;;;;;;4.95;3.50;;;15.50;99.90;;;;;;4677449;30;20058;-84
2022/05/20 02:50:49;;;;;;;2.47;2.28;;;15.70;99.90;;;;;;4666496;30;20058;-85
2022/05/20 02:54:21;;;;;;;2.90;2.67;;;15.50;99.90;;;;;;4672060;30;20046;-85
2022/05/20 02:57:48;;;;;;;4.65;2.08;;;15.10;99.90;;;;;;4667968;30;20045;-83
2022/05/20 03:04:45;;;;;;;2.55;2.28;;;15.10;99.90;;;;;;4681639;30;20054;-85
2022/05/20 03:08:09;;;;;;;2.33;2.15;;;15.30;99.90;;;;;;4661084;30;20792;-84
2022/05/20 03:10:42;;;;;;;2.25;2.03;;;15.40;99.90;;;;;;4638519;30;20054;-84
2022/05/20 03:13:13;;;;;;;2.72;2.50;;;15.00;99.90;;;;;;4665448;30;20050;-84
2022/05/20 03:15:42;;;;;;;9.73;3.78;;;14.90;99.90;;;;;;4680080;30;20054;-85
2022/05/20 03:18:11;;;;;;;3.03;2.80;;;14.80;99.90;;;;;;4665871;30;20049;-84
2022/05/20 03:20:41;;;;;;;2.47;2.28;;;14.40;99.90;;;;;;4651692;30;20136;-83
2022/05/20 03:23:10;;;;;;;2.83;2.40;;;14.40;99.90;;;;;;4652865;30;20050;-82
2022/05/20 03:25:38;;;;;;;2.60;2.38;;;14.40;99.90;;;;;;4680868;30;20440;-83
2022/05/20 03:28:12;;;;;;;2.20;2.00;;;14.30;99.90;;;;;;4665679;30;20061;-83
2022/05/20 03:30:40;;;;;;;3.25;2.53;;;14.50;99.90;;;;;;4651600;30;20060;-83
2022/05/20 03:33:08;;;;;;;2.95;2.75;;;14.50;99.90;;;;;;4651702;30;20057;-83
2022/05/20 03:35:36;;;;;;;5.90;3.15;;;14.50;99.90;;;;;;4665964;30;20424;-84
2022/05/20 03:38:04;;;;;;;2.40;2.20;;;14.30;99.90;;;;;;4662840;30;20501;-84
2022/05/20 03:40:32;;;;;;;5.82;2.42;;;14.20;99.90;;;;;;4648151;30;20051;-83
2022/05/20 03:42:59;;;;;;;2.85;2.65;;;14.20;99.90;;;;;;4632256;30;20069;-83
2022/05/20 03:45:27;;;;;;;3.47;3.08;;;14.20;99.90;;;;;;4631082;30;20062;-84
2022/05/20 03:47:55;;;;;;;4.32;2.72;;;14.20;99.90;;;;;;4647154;30;20054;-84
2022/05/20 03:50:23;;;;;;;4.03;2.25;;;14.30;99.90;;;;;;4640794;30;20050;-83
2022/05/20 03:52:50;;;;;;;3.05;2.47;;;14.30;99.90;;;;;;4648171;30;20054;-83
2022/05/20 03:55:18;;;;;;;3.08;2.88;;;14.30;99.90;;;;;;4645733;30;20070;-83
2022/05/20 03:57:46;;;;;;;2.28;2.17;;;14.30;99.90;;;;;;4642161;30;20062;-84
2022/05/20 04:00:14;;;;;;;2.17;2.03;;;14.30;99.90;;;;;;4629628;30;20063;-83
2022/05/20 04:02:42;;;;;;;3.33;3.03;;;14.30;99.90;;;;;;4628983;31;20067;-83
2022/05/20 04:05:10;;;;;;;2.80;2.53;;;14.40;99.90;;;;;;4634550;30;20051;-83
2022/05/20 04:07:41;;;;;;;2.30;2.05;;;14.40;99.90;;;;;;4646979;30;20091;-83
2022/05/20 04:10:09;;;;;;;2.50;2.28;;;14.50;99.90;;;;;;4645077;30;20059;-83
2022/05/20 04:12:40;;;;;;;2.58;2.22;;;14.60;99.90;;;;;;4645282;30;20059;-83
2022/05/20 04:15:12;;;;;;;2.47;2.28;;;14.70;99.90;;;;;;4640580;30;20062;-83
2022/05/20 04:17:40;;;;;;;2.55;2.22;;;14.80;99.90;;;;;;4643423;30;20051;-83
2022/05/20 04:20:08;;;;;;;2.40;2.20;;;14.90;99.90;;;;;;4644878;30;20058;-83
2022/05/20 04:22:39;;;;;;;2.25;2.05;;;15.00;99.90;;;;;;4659159;30;20073;-82
2022/05/20 04:25:07;;;;;;;2.80;2.10;;;15.10;99.90;;;;;;4643540;30;20387;-83
2022/05/20 04:27:35;;;;;;;3.38;2.50;;;15.20;99.90;;;;;;4612705;30;20082;-83
2022/05/20 04:30:04;;;;;;;4.63;2.15;;;15.30;99.90;;;;;;4645135;30;20062;-82
2022/05/20 04:32:32;;;;;;;2.63;2.33;;;15.50;99.90;;;;;;4644234;30;20073;-83
2022/05/20 04:34:59;;;;;;;2.00;1.40;;;15.60;99.90;;;;;;4646683;30;20505;-82
2022/05/20 04:37:27;;;;;;;2.42;2.25;;;15.70;99.90;;;;;;4670379;30;20058;-84
2022/05/20 04:39:56;;;;;;;2.30;2.15;;;15.80;99.90;;;;;;4665182;30;20054;-84
2022/05/20 04:48:00;;;;;;;4.25;2.15;;;16.40;99.90;;;;;;4680476;30;20396;-84
2022/05/20 04:50:28;;;;;;;4.15;1.80;;;16.70;99.90;;;;;;4664166;30;20062;-84
2022/05/20 04:52:55;;;;;;;2.38;2.17;;;16.90;99.90;;;;;;4664539;30;20061;-84
2022/05/20 04:55:23;;;;;;;1.98;1.88;;;17.20;99.90;;;;;;4664722;30;20058;-85
2022/05/20 04:57:52;;;;;;;2.03;1.83;;;17.40;99.90;;;;;;4679825;30;20085;-84
2022/05/20 05:00:26;;;;;;;2.00;1.90;;;17.60;99.90;;;;;;4679372;30;20045;-85
2022/05/20 05:02:55;;;;;;;2.33;2.13;;;17.90;99.90;;;;;;4659463;30;20065;-87
2022/05/20 05:05:26;;;;;;;2.95;2.40;;;18.10;99.90;;;;;;4636883;30;20058;-86
2022/05/20 05:07:57;;;;;;;1.92;1.67;;;18.30;99.90;;;;;;4663986;30;20765;-85
2022/05/20 05:10:28;;;;;;;7.80;2.67;;;18.50;99.90;;;;;;4663744;30;20058;-81
2022/05/20 05:12:56;;;;;;;2.53;1.77;;;18.60;99.90;;;;;;4664391;30;20046;-83
2022/05/20 05:15:24;;;;;;;2.13;1.92;;;18.70;99.90;;;;;;4679615;30;20050;-83
2022/05/20 05:18:12;;;;;;;8.60;2.88;;;18.50;99.90;;;;;;4679440;30;20058;-83
2022/05/20 05:20:42;;;;;;;1.67;1.58;;;18.70;99.90;;;;;;4664029;30;20077;-83
2022/05/20 05:23:10;;;;;;;2.50;1.70;;;18.80;99.90;;;;;;4680344;30;20066;-82
2022/05/20 05:25:38;;;;;;;3.25;2.75;;;18.80;99.90;;;;;;4649825;30;20515;-82
2022/05/20 05:28:06;;;;;;;1.60;1.50;;;18.90;99.90;;;;;;4679270;30;20386;-86
2022/05/20 05:30:35;;;;;;;2.33;2.13;;;19.10;99.90;;;;;;4634158;30;20057;-85
2022/05/20 05:33:05;;;;;;;2.35;2.15;;;19.50;99.90;;;;;;4656360;30;20054;-83
2022/05/20 05:35:32;;;;;;;2.25;2.05;;;19.60;99.90;;;;;;4682099;30;20058;-84
2022/05/20 05:38:00;;;;;;;2.10;1.90;;;19.80;99.90;;;;;;4681055;30;20050;-83
2022/05/20 05:40:30;;;;;;;3.38;2.88;;;20.00;99.90;;;;;;4682492;30;20065;-86
2022/05/20 05:42:59;;;;;;;2.95;2.47;;;20.20;99.90;;;;;;4666608;30;20065;-86
2022/05/20 05:45:30;;;;;;;2.40;2.20;;;20.50;99.90;;;;;;4661388;30;20524;-86
2022/05/20 05:48:01;;;;;;;1.92;1.83;;;20.70;99.90;;;;;;4660847;30;20436;-86
2022/05/20 05:50:30;;;;;;;2.47;2.22;;;20.90;99.90;;;;;;4675195;30;20415;-86
2022/05/20 05:53:07;;;;;;;1.92;1.83;;;20.90;99.90;;;;;;4677836;30;20055;-86
2022/05/20 05:55:35;;;;;;;5.65;2.40;;;20.70;99.90;;;;;;4665412;30;20047;-86
2022/05/20 05:58:03;;;;;;;2.65;1.48;;;20.80;99.90;;;;;;4663680;30;20059;-86
2022/05/20 06:00:32;;;;;;;2.70;2.50;;;21.00;99.90;;;;;;4662475;30;20050;-86
2022/05/20 06:02:59;;;;;;;2.53;2.13;;;21.20;99.90;;;;;;4650376;30;20329;-86
2022/05/20 06:05:28;;;;;;;2.33;2.13;;;21.50;99.90;;;;;;4648658;30;20051;-86
2022/05/20 06:07:56;;;;;;;2.72;1.92;;;21.70;99.90;;;;;;4663576;30;20054;-87
2022/05/20 06:10:24;;;;;;;4.05;2.00;;;21.80;99.90;;;;;;4666389;30;20528;-86
2022/05/20 06:12:51;;;;;;;1.92;1.83;;;22.00;99.90;;;;;;4646052;30;20512;-86
2022/05/20 06:15:22;;;;;;;2.28;1.85;;;21.90;99.90;;;;;;4649025;30;20055;-87
2022/05/20 06:17:51;;;;;;;5.45;2.38;;;21.80;99.90;;;;;;4673063;30;20409;-88
2022/05/20 06:20:20;;;;;;;9.93;2.78;;;21.70;99.90;;;;;;4679312;30;20054;-89
2022/05/20 06:22:49;;;;;;;2.72;2.10;;;21.70;99.90;;;;;;4680925;30;20085;-87
2022/05/20 06:25:18;;;;;;;5.53;2.75;;;21.90;99.90;;;;;;4651375;30;20533;-85
2022/05/20 06:27:46;;;;;;;2.60;2.38;;;22.10;99.90;;;;;;4682416;30;20058;-85
2022/05/20 06:30:18;;;;;;;2.30;2.10;;;22.20;99.90;;;;;;4681746;30;20512;-84
2022/05/20 06:32:46;;;;;;;2.60;2.05;;;22.20;99.90;;;;;;4682084;30;20065;-85
2022/05/20 06:40:49;;;;;;;5.30;2.38;;;22.50;99.90;;;;;;4662708;30;20409;-84
2022/05/20 06:43:20;;;;;;;3.20;2.45;;;22.60;99.90;;;;;;4665022;30;20568;-85
2022/05/20 06:45:51;;;;;;;2.08;1.92;;;22.80;99.90;;;;;;4661107;30;20816;-83
2022/05/20 06:48:51;;;;;;;6.40;2.30;;;23.00;99.90;;;;;;4662069;30;20344;-83
2022/05/20 06:51:25;;;;;;;2.88;1.95;;;23.20;99.90;;;;;;4662781;30;20059;-84
2022/05/20 06:53:54;;;;;;;1.83;1.73;;;23.40;99.90;;;;;;4662387;30;20061;-83
2022/05/20 06:56:24;;;;;;;2.20;2.08;;;23.30;99.90;;;;;;4665716;30;20302;-84
2022/05/20 06:58:52;;;;;;;2.15;1.95;;;23.30;99.90;;;;;;4680602;30;20066;-83
2022/05/20 07:01:20;;;;;;;2.42;2.22;;;23.30;99.90;;;;;;4675117;30;20078;-83
2022/05/20 07:03:48;;;;;;;2.47;2.30;;;23.40;99.90;;;;;;4663966;30;20077;-84
2022/05/20 07:06:16;;;;;;;1.95;1.70;;;23.50;99.90;;;;;;4676219;30;20069;-85
2022/05/20 07:08:48;;;;;;;2.20;1.70;;;23.30;99.90;;;;;;4678724;30;20088;-85
2022/05/20 07:11:21;;;;;;;2.55;2.00;;;23.30;99.90;;;;;;4679309;30;20057;-84
2022/05/20 07:13:54;;;;;;;2.55;2.20;;;23.30;99.90;;;;;;4680350;30;20054;-85
2022/05/20 07:16:31;;;;;;;5.25;2.97;;;23.60;99.90;;;;;;4678874;30;20584;-85
2022/05/20 07:18:59;;;;;;;2.72;2.45;;;23.80;99.90;;;;;;4680032;30;20490;-86
2022/05/20 07:21:27;;;;;;;2.30;2.15;;;23.90;99.90;;;;;;4679842;30;20537;-85
2022/05/20 07:23:55;;;;;;;2.30;2.10;;;24.00;99.90;;;;;;4679400;30;20061;-84
2022/05/20 07:26:23;;;;;;;2.33;1.90;;;24.00;99.90;;;;;;4664547;30;20523;-83
2022/05/20 07:28:52;;;;;;;1.60;1.50;;;23.80;99.90;;;;;;4664630;30;20085;-83
2022/05/20 07:31:23;;;;;;;2.95;2.30;;;24.00;99.90;;;;;;4679173;30;20054;-83
2022/05/20 07:33:52;;;;;;;2.80;2.60;;;24.00;99.90;;;;;;4680213;30;20461;-83
2022/05/20 07:36:20;;;;;;;1.60;1.48;;;23.90;99.90;;;;;;4678513;30;20489;-84
2022/05/20 07:38:48;;;;;;;2.97;2.20;;;24.00;99.90;;;;;;4679972;30;20073;-83
2022/05/20 07:41:17;;;;;;;2.65;2.42;;;24.10;99.90;;;;;;4679629;30;20046;-85
2022/05/20 07:43:45;;;;;;;2.60;2.40;;;24.20;99.90;;;;;;4678786;30;20519;-83
2022/05/20 07:46:12;;;;;;;3.00;2.13;;;24.30;99.90;;;;;;4677006;30;20236;-83
2022/05/20 07:48:40;;;;;;;2.40;1.88;;;24.20;99.90;;;;;;4679318;30;20417;-82
2022/05/20 07:51:14;;;;;;;2.40;2.20;;;24.20;99.90;;;;;;4680210;30;20477;-84
2022/05/20 07:53:48;;;;;;;7.03;2.67;;;24.30;99.90;;;;;;4679629;30;20418;-84
2022/05/20 07:56:24;;;;;;;3.22;2.33;;;24.40;99.90;;;;;;4679485;30;20065;-85
2022/05/20 07:59:15;;;;;;;4.10;2.22;;;24.30;99.90;;;;;;4679602;30;20053;-84
2022/05/20 08:01:48;;;;;;;1.95;1.85;;;24.30;99.90;;;;;;4680069;30;20064;-84
2022/05/20 08:05:16;;;;;;;2.33;2.13;;;24.10;99.90;;;;;;4679644;30;20065;-83
2022/05/20 08:07:33;;;;;;;3.42;2.35;;;24.00;99.90;;;;;;4659548;30;20062;-83
2022/05/20 08:10:05;;;;;;;3.08;2.88;;;23.90;99.90;;;;;;4661818;30;20065;-84
2022/05/20 08:12:33;;;;;;;1.95;1.85;;;24.10;99.90;;;;;;4661150;30;20054;-82
2022/05/20 08:15:00;;;;;;;8.90;2.97;;;24.10;99.90;;;;;;4660167;30;20062;-84
2022/05/20 08:17:29;;;;;;;2.33;2.03;;;24.10;99.90;;;;;;4662392;30;20321;-83
2022/05/20 08:19:57;;;;;;;3.63;2.70;;;24.10;99.90;;;;;;4662303;30;20425;-83
2022/05/20 08:22:25;;;;;;;18.10;3.22;;;24.10;99.90;;;;;;4662078;30;20058;-83
2022/05/20 08:24:56;;;;;;;5.00;2.47;;;24.30;99.90;;;;;;4646630;30;20054;-82
2022/05/20 08:27:29;;;;;;;15.10;3.00;;;24.70;99.90;;;;;;4661732;30;20514;-84
2022/05/20 08:30:02;;;;;;;2.08;1.98;;;25.20;99.90;;;;;;4676095;30;20412;-84
2022/05/20 08:32:30;;;;;;;3.13;2.28;;;25.00;99.90;;;;;;4679259;30;20057;-86
2022/05/20 08:34:58;;;;;;;3.35;2.70;;;24.90;99.90;;;;;;4679763;30;20069;-85
2022/05/20 08:37:26;;;;;;;5.03;3.28;;;24.80;99.90;;;;;;4678765;30;20070;-83
2022/05/20 08:39:54;;;;;;;3.70;3.10;;;24.80;99.90;;;;;;4649475;30;20489;-83
2022/05/20 08:42:29;;;;;;;3.53;2.33;;;24.70;99.90;;;;;;4663256;30;20057;-84
2022/05/20 08:44:58;;;;;;;2.40;2.20;;;24.70;99.90;;;;;;4677272;30;20485;-84
2022/05/20 08:47:52;;;;;;;3.08;2.38;;;24.80;99.90;;;;;;4679148;30;20532;-83
2022/05/20 08:50:44;;;;;;;3.60;2.67;;;24.90;99.90;;;;;;4674755;30;20057;-84
2022/05/20 08:53:26;;;;;;;2.67;2.42;;;25.00;99.90;;;;;;4678955;30;20365;-84
2022/05/20 08:56:05;;;;;;;8.77;2.13;;;25.20;99.90;;;;;;4677677;30;20085;-84
2022/05/20 08:58:35;;;;;;;2.55;2.35;;;25.10;99.90;;;;;;4677709;30;20073;-84
2022/05/20 09:01:03;;;;;;;2.42;2.30;;;25.00;99.90;;;;;;4674714;30;20053;-84
2022/05/20 09:03:31;;;;;;;5.28;2.72;;;25.00;99.90;;;;;;4661963;30;20393;-83
2022/05/20 10:23:39;;;;;;;2.72;2.53;;;26.30;99.90;;;;;;5104627;24;20061;-90
2022/05/20 11:56:18;;;;;;;5.03;2.75;;;27.80;99.90;;;;;;4821738;25;20404;-82
2022/05/20 11:58:57;;;;;;;7.28;3.78;;;27.80;99.90;;;;;;4666451;30;20248;-88
2022/05/20 12:01:26;;;;;;;6.88;3.22;;;27.80;99.90;;;;;;4680010;30;20058;-85
2022/05/20 12:04:07;;;;;;;2.60;2.45;;;27.80;99.90;;;;;;4697468;30;20515;-87
2022/05/20 12:06:54;;;;;;;4.53;3.35;;;27.70;99.90;;;;;;4676764;30;20075;-83
2022/05/20 12:10:01;;;;;;;4.28;3.33;;;27.70;99.90;;;;;;4677594;30;20061;-85
2022/05/20 12:12:31;;;;;;;5.20;2.50;;;27.70;99.90;;;;;;4657909;30;20053;-86
2022/05/20 12:15:11;;;;;;;4.47;3.63;;;27.50;99.90;;;;;;4664431;30;20080;-87
2022/05/20 12:17:48;;;;;;;9.80;2.78;;;27.10;99.90;;;;;;4665507;30;20050;-86
2022/05/20 12:26:40;;;;;;;2.95;2.75;;;27.50;99.90;;;;;;4680390;30;20449;-86
2022/05/20 12:29:37;;;;;;;6.15;3.20;;;27.70;99.90;;;;;;4687301;30;20074;-86
2022/05/20 12:32:41;;;;;;;3.35;3.05;;;27.60;99.90;;;;;;4696398;30;20068;-85
2022/05/20 12:35:16;;;;;;;3.42;2.90;;;27.50;99.90;;;;;;4666552;30;20053;-86
2022/05/20 12:37:50;;;;;;;5.57;3.28;;;27.30;99.90;;;;;;4665861;30;20411;-87
2022/05/20 12:40:28;;;;;;;4.28;3.42;;;27.50;99.90;;;;;;4664996;30;20061;-87
2022/05/20 12:42:59;;;;;;;8.45;2.90;;;27.60;99.90;;;;;;4696625;30;20504;-86
2022/05/20 12:45:32;;;;;;;10.82;3.60;;;27.50;99.90;;;;;;4679138;30;20057;-86
2022/05/20 12:48:02;;;;;;;14.32;3.03;;;27.60;99.90;;;;;;4696063;30;20520;-86
2022/05/20 12:50:31;;;;;;;4.65;3.35;;;27.60;99.90;;;;;;4665401;30;20264;-84
2022/05/20 12:53:02;;;;;;;6.25;2.70;;;27.70;99.90;;;;;;4694694;30;20049;-84
2022/05/20 12:55:38;;;;;;;3.80;3.05;;;27.90;99.90;;;;;;4666288;30;20050;-84
2022/05/20 12:58:11;;;;;;;4.28;3.28;;;28.00;99.90;;;;;;4679936;30;20400;-83
2022/05/20 13:00:49;;;;;;;4.22;2.97;;;28.10;99.90;;;;;;4678629;30;20057;-83
2022/05/20 13:03:35;;;;;;;5.00;2.70;;;28.10;99.90;;;;;;4649408;30;20078;-84
2022/05/20 13:06:16;;;;;;;3.92;2.60;;;28.20;99.90;;;;;;4689843;30;20056;-84
2022/05/20 13:08:44;;;;;;;;;;;28.40;99.90;;;;;;4694402;30;20064;-83
2022/05/20 13:11:13;;;;;;;5.03;3.30;;;28.50;99.90;;;;;;4695754;30;20171;-83
2022/05/20 13:13:42;;;;;;;9.20;2.63;;;28.60;99.90;;;;;;4694323;30;20054;-83
2022/05/20 13:16:13;;;;;;;3.17;2.90;;;28.60;99.90;;;;;;4694127;30;20062;-83
2022/05/20 13:18:55;;;;;;;7.03;3.15;;;28.70;99.80;;;;;;4679920;30;20061;-83
2022/05/20 13:21:25;;;;;;;4.40;3.42;;;28.60;96.60;;;;;;4695544;30;20050;-84
2022/05/20 13:23:54;;;;;;;4.57;4.07;;;28.60;95.60;;;;;;4696380;30;20504;-81
2022/05/20 13:26:31;;;;;;;5.38;2.63;;;28.60;95.20;;;;;;4679811;30;20056;-86
2022/05/20 13:29:08;;;;;;;4.32;2.85;;;28.60;94.90;;;;;;4679362;30;20401;-84
2022/05/20 13:31:37;;;;;;;7.70;3.33;;;28.60;99.90;;;;;;4680825;30;20373;-88
2022/05/20 13:34:06;;;;;;;4.65;3.13;;;28.80;99.90;;;;;;4665859;30;20467;-85
2022/05/20 13:36:42;;;;;;;3.70;2.92;;;28.90;99.90;;;;;;4679956;30;20060;-84
2022/05/20 13:39:18;;;;;;;3.15;2.85;;;28.90;98.00;;;;;;4694831;30;20503;-85
2022/05/20 13:41:49;;;;;;;4.60;3.35;;;28.90;98.50;;;;;;4694426;30;20050;-85
2022/05/20 13:44:25;;;;;;;3.70;3.35;;;28.90;94.20;;;;;;4676931;30;20057;-84
2022/05/20 13:49:48;;;;;;;4.38;2.70;;;29.00;93.80;;;;;;4694796;30;20428;-84
2022/05/20 13:52:17;;;;;;;3.30;2.67;;;29.10;96.40;;;;;;4682523;30;20058;-85
2022/05/20 13:54:55;;;;;;;5.15;3.10;;;29.10;94.00;;;;;;4650815;30;20077;-84
2022/05/20 13:57:44;;;;;;;5.68;2.97;;;29.20;97.70;;;;;;4680118;30;20054;-83
2022/05/20 14:00:32;;;;;;;4.50;3.03;;;29.00;95.70;;;;;;4650323;30;20057;-86
2022/05/20 14:03:34;;;;;;;3.70;3.33;;;29.10;97.30;;;;;;4666096;30;20497;-84
2022/05/20 14:06:11;;;;;;;11.70;3.60;;;29.10;94.70;;;;;;4692676;30;20053;-85
2022/05/20 14:08:43;;;;;;;3.08;2.78;;;29.10;93.60;;;;;;4697763;30;20595;-86
2022/05/20 14:11:15;;;;;;;17.45;3.03;;;29.10;94.90;;;;;;4682663;30;20057;-82
2022/05/20 14:13:44;;;;;;;3.33;3.03;;;29.10;97.00;;;;;;4697873;30;20053;-86
2022/05/20 14:16:32;;;;;;;2.75;2.55;;;29.20;96.70;;;;;;4681249;30;20061;-83
2022/05/20 14:19:32;;;;;;;6.65;3.30;;;29.30;96.30;;;;;;4682785;30;20046;-84
2022/05/20 14:22:03;;;;;;;3.17;2.90;;;29.30;96.90;;;;;;4669584;30;20061;-84
2022/05/20 14:24:36;;;;;;;2.92;2.40;;;29.30;97.20;;;;;;4650787;30;20065;-84
2022/05/20 14:27:05;;;;;;;3.40;3.10;;;29.20;97.70;;;;;;4651573;30;20054;-85
2022/05/20 14:29:37;;;;;;;3.40;3.10;;;29.20;98.10;;;;;;4649155;30;20050;-84
2022/05/20 14:32:13;;;;;;;4.35;3.70;;;29.20;95.40;;;;;;4679438;30;20474;-84
2022/05/20 14:34:47;;;;;;;3.28;2.97;;;29.30;95.00;;;;;;4637392;30;20161;-84
2022/05/20 14:37:24;;;;;;;8.50;3.25;;;29.20;95.40;;;;;;4664803;30;20077;-84
2022/05/20 14:40:00;;;;;;;5.93;2.75;;;29.30;93.10;;;;;;4680244;30;20464;-86
2022/05/20 14:42:34;;;;;;;7.60;3.40;;;29.30;92.30;;;;;;4681173;30;20050;-83
2022/05/20 14:45:19;;;;;;;4.85;2.88;;;29.30;90.90;;;;;;4663278;30;20057;-84
2022/05/20 14:47:50;;;;;;;4.45;3.10;;;29.40;92.80;;;;;;4665627;30;20054;-84
2022/05/20 14:50:21;;;;;;;3.70;3.35;;;29.40;89.90;;;;;;4680469;30;20057;-84
2022/05/20 14:53:06;;;;;;;5.20;3.45;;;29.60;96.60;;;;;;4665579;30;20050;-84
2022/05/20 14:55:46;;;;;;;5.97;3.22;;;29.60;95.00;;;;;;4680681;30;20074;-83
2022/05/20 14:58:25;;;;;;;2.13;1.92;;;29.70;93.80;;;;;;4664652;30;20058;-84
2022/05/20 15:00:56;;;;;;;3.10;2.53;;;29.70;96.40;;;;;;4647449;30;20057;-83
2022/05/20 15:03:27;;;;;;;5.63;3.50;;;29.70;93.30;;;;;;4647236;30;20070;-84
2022/05/20 15:05:55;;;;;;;5.35;3.25;;;29.60;94.90;;;;;;4663884;30;20057;-84
2022/05/20 15:08:26;;;;;;;6.53;2.70;;;29.60;98.40;;;;;;4663593;30;20050;-84
2022/05/20 15:10:59;;;;;;;7.97;3.35;;;29.60;91.70;;;;;;4636531;30;20054;-84
2022/05/20 15:13:27;;;;;;;3.38;3.10;;;29.60;94.80;;;;;;4680060;30;20418;-84
2022/05/20 15:15:55;;;;;;;11.25;3.65;;;29.70;95.00;;;;;;4662885;30;20061;-84
2022/05/20 15:18:23;;;;;;;8.63;4.13;;;29.70;99.10;;;;;;4662508;30;20054;-86
2022/05/20 15:20:58;;;;;;;4.03;3.58;;;29.80;99.50;;;;;;4679937;30;20050;-84
2022/05/20 15:23:47;;;;;;;2.85;2.65;;;29.80;96.40;;;;;;4665186;30;20058;-84
2022/05/20 15:26:24;;;;;;;4.53;2.65;;;29.70;95.60;;;;;;4663696;30;20053;-85
2022/05/20 15:28:53;;;;;;;4.53;3.58;;;29.60;96.60;;;;;;4663700;30;20464;-85
2022/05/20 15:37:17;;;;;;;5.93;3.53;;;29.60;97.40;;;;;;4649546;30;20050;-84
2022/05/20 15:40:05;;;;;;;8.80;3.05;;;29.60;95.30;;;;;;4679818;30;20061;-84
2022/05/20 15:42:33;;;;;;;3.55;2.67;;;29.60;93.90;;;;;;4649269;30;20077;-84
2022/05/20 15:45:10;;;;;;;4.53;3.28;;;29.60;94.20;;;;;;4678119;30;20535;-84
2022/05/20 15:47:38;;;;;;;8.20;3.38;;;29.70;95.50;;;;;;4679562;30;20061;-83
2022/05/20 15:50:07;;;;;;;3.60;3.35;;;29.70;95.50;;;;;;4678779;30;20496;-84
2022/05/20 15:52:37;;;;;;;6.35;3.60;;;29.70;99.20;;;;;;4668182;30;20058;-84
2022/05/20 15:55:10;;;;;;;3.53;2.97;;;29.70;98.30;;;;;;4663045;30;20075;-83
2022/05/20 15:57:40;;;;;;;3.67;3.05;;;29.70;96.20;;;;;;4645633;30;20490;-83
2022/05/20 16:00:14;;;;;;;6.97;3.35;;;29.60;93.70;;;;;;4650115;30;20057;-85
2022/05/20 16:02:42;;;;;;;5.90;3.13;;;29.60;94.50;;;;;;4649950;30;20065;-84
2022/05/20 16:05:20;;;;;;;5.13;2.92;;;29.60;95.40;;;;;;4658708;30;20038;-84
2022/05/20 16:07:50;;;;;;;3.75;3.22;;;29.60;97.70;;;;;;4632728;30;20062;-85
2022/05/20 16:10:28;;;;;;;4.35;3.03;;;29.60;95.20;;;;;;4631948;30;20055;-85
2022/05/20 16:13:06;;;;;;;5.50;3.42;;;29.60;95.50;;;;;;4632545;30;20502;-84
2022/05/20 16:15:35;;;;;;;3.38;2.58;;;29.60;94.90;;;;;;4645579;30;20474;-85
2022/05/20 16:18:04;;;;;;;6.78;4.22;;;29.60;96.90;;;;;;4650399;30;20061;-85
2022/05/20 16:20:32;;;;;;;3.55;2.95;;;29.60;96.80;;;;;;4663587;30;20061;-85
2022/05/20 16:23:01;;;;;;;3.67;3.10;;;29.50;94.70;;;;;;4679754;30;20054;-84
2022/05/20 16:25:28;;;;;;;6.35;3.72;;;29.50;95.90;;;;;;4663065;30;20054;-84
2022/05/20 16:27:58;;;;;;;3.88;3.58;;;29.40;95.70;;;;;;4638121;30;20057;-84
2022/05/20 16:30:28;;;;;;;6.28;3.60;;;29.40;95.00;;;;;;4650308;30;20054;-85
2022/05/20 16:32:57;;;;;;;3.22;2.90;;;29.40;96.70;;;;;;4663484;30;20085;-82
2022/05/20 16:35:24;;;;;;;5.95;3.35;;;29.30;95.00;;;;;;4679881;30;20050;-82
2022/05/20 16:37:53;;;;;;;2.92;2.72;;;29.30;95.60;;;;;;4678489;30;20428;-82
2022/05/20 16:40:23;;;;;;;3.78;2.83;;;29.20;95.70;;;;;;4664134;30;20413;-85